Time;durP1;ratioP1;P1;durP2;ratioP2;P2;SDS_P1;SDS_P2;PMS_P1;PMS_P2;Temp;Humidity;BMP_temperature;BMP_pressure;BME280_temperature;BME280_humidity;BME280_pressure;Samples;Min_cycle;Max_cycle;Signal;HPM_P1;HPM_P2
2021/12/03 00:03:07;;;;;;;7.70;2.50;;;;;;;-2.00;100.00;100692.41;10411026;28;20064;-88
2021/12/03 00:08:08;;;;;;;5.70;2.07;;;;;;;-2.25;100.00;100608.06;10410470;28;20033;-88
2021/12/03 00:13:09;;;;;;;10.23;6.07;;;;;;;-2.45;100.00;100619.28;10410402;28;20080;-88
2021/12/03 00:18:09;;;;;;;5.93;3.13;;;;;;;-3.59;100.00;100399.75;10410949;28;20378;-88
2021/12/03 00:23:10;;;;;;;5.57;2.73;;;;;;;-2.30;100.00;100630.16;10426937;28;20032;-88
2021/12/03 00:28:10;;;;;;;4.33;2.03;;;;;;;-1.90;100.00;100692.16;10411380;28;20124;-88
2021/12/03 00:33:12;;;;;;;8.00;2.30;;;;;;;-3.38;100.00;100506.00;10409410;28;20465;-88
2021/12/03 00:38:15;;;;;;;7.87;2.77;;;;;;;-2.76;100.00;100572.59;10409887;28;20481;-87
2021/12/03 00:43:15;;;;;;;9.53;3.83;;;;;;;-1.56;100.00;100905.06;10410164;28;20117;-88
2021/12/03 00:48:16;;;;;;;6.80;2.77;;;;;;;-2.04;100.00;100691.06;10409691;28;20119;-88
2021/12/03 00:53:16;;;;;;;5.50;2.90;;;;;;;-1.64;100.00;100746.66;10408856;28;20078;-88
2021/12/03 00:58:17;;;;;;;9.77;4.20;;;;;;;-2.70;100.00;100555.72;10424140;28;20620;-88
2021/12/03 01:03:17;;;;;;;7.40;2.83;;;;;;;-2.79;100.00;100600.75;10408699;28;20442;-88
2021/12/03 01:08:18;;;;;;;9.37;2.80;;;;;;;-2.06;100.00;100725.47;10408842;28;20033;-88
2021/12/03 01:13:19;;;;;;;8.00;3.13;;;;;;;-2.00;100.00;100708.59;10408255;28;20033;-88
2021/12/03 01:18:19;;;;;;;11.47;3.57;;;;;;;-1.31;100.00;100813.13;10408828;28;20112;-88
2021/12/03 01:23:20;;;;;;;8.67;3.07;;;;;;;-1.71;100.00;100745.69;10408591;28;20396;-88
2021/12/03 01:28:20;;;;;;;10.63;3.67;;;;;;;-1.42;100.00;100793.63;10408339;28;20033;-88
2021/12/03 01:33:21;;;;;;;10.53;4.83;;;;;;;-1.76;100.00;100702.19;10426268;28;20102;-88
2021/12/03 01:38:22;;;;;;;11.63;5.27;;;;;;;-1.99;100.00;100683.28;10407469;28;20040;-87
2021/12/03 01:43:25;;;;;;;12.77;5.23;;;;;;;-1.54;100.00;100762.63;10390786;28;20112;-88
2021/12/03 01:48:26;;;;;;;12.13;5.67;;;;;;;-1.79;100.00;100705.25;10408384;28;20036;-88
2021/12/03 01:53:28;;;;;;;9.53;5.37;;;;;;;-1.24;100.00;100816.78;10390673;28;20133;-86
2021/12/03 01:58:28;;;;;;;10.67;5.67;;;;;;;-1.26;100.00;100784.59;10390712;28;20029;-88
2021/12/03 02:03:31;;;;;;;8.37;5.30;;;;;;;-2.62;100.00;100616.84;10407077;28;20079;-88
2021/12/03 02:08:31;;;;;;;10.67;5.93;;;;;;;-2.25;100.00;100622.41;10406788;28;20033;-88
2021/12/03 02:13:32;;;;;;;16.13;6.47;;;;;;;-2.06;100.00;100660.72;10390605;28;20033;-87
2021/12/03 02:18:32;;;;;;;12.80;6.47;;;;;;;-2.26;100.00;100677.31;10406624;28;20025;-86
2021/12/03 02:23:33;;;;;;;13.83;6.40;;;;;;;-3.12;100.00;100528.13;10389654;28;20028;-86
2021/12/03 02:28:39;;;;;;;19.17;6.93;;;;;;;-3.20;100.00;100482.38;10389728;28;20083;-88
2021/12/03 02:33:39;;;;;;;14.13;8.20;;;;;;;-3.98;100.00;100432.78;10406603;28;20056;-88
2021/12/03 02:38:40;;;;;;;14.80;7.60;;;;;;;-2.67;100.00;100647.84;10406530;28;20280;-86
2021/12/03 02:43:40;;;;;;;17.70;7.67;;;;;;;-2.19;100.00;100698.19;10405569;28;20158;-86
2021/12/03 02:48:41;;;;;;;14.47;7.63;;;;;;;-1.94;100.00;100702.47;10406156;28;20469;-87
2021/12/03 02:53:41;;;;;;;21.17;8.97;;;;;;;-2.75;100.00;100661.34;10405882;28;20127;-88
2021/12/03 02:58:42;;;;;;;15.50;8.13;;;;;;;-3.06;100.00;100591.19;10405432;28;20496;-86
2021/12/03 03:03:42;;;;;;;16.23;8.47;;;;;;;-2.97;100.00;100590.19;10405436;28;20057;-86
2021/12/03 03:08:44;;;;;;;17.30;8.87;;;;;;;-3.03;100.00;100511.94;10389159;28;20033;-86
2021/12/03 03:13:45;;;;;;;19.83;9.73;;;;;;;-2.52;100.00;100736.06;10389519;28;20082;-86
2021/12/03 03:18:45;;;;;;;19.10;9.70;;;;;;;-2.74;100.00;100579.47;10421213;28;20170;-86
2021/12/03 03:23:46;;;;;;;23.70;9.80;;;;;;;-4.03;100.00;100428.94;10412059;28;20088;-86
2021/12/03 03:28:46;;;;;;;30.67;14.20;;;;;;;-1.49;100.00;100683.78;10429460;28;20531;-86
2021/12/03 03:33:47;;;;;;;32.63;16.93;;;;;;;-3.53;100.00;100393.66;10428382;28;20077;-86
2021/12/03 03:38:48;;;;;;;41.00;20.83;;;;;;;-3.16;100.00;100432.53;10411945;28;20036;-86
2021/12/03 03:43:48;;;;;;;52.60;25.17;;;;;;;-3.20;100.00;100439.28;10395991;28;20051;-84
2021/12/03 03:48:49;;;;;;;52.20;28.10;;;;;;;-4.02;100.00;100399.19;10428113;28;20132;-84
2021/12/03 03:53:49;;;;;;;59.07;31.87;;;;;;;-3.12;100.00;100466.19;10411854;28;20377;-85
2021/12/03 03:58:50;;;;;;;56.77;32.43;;;;;;;-2.84;100.00;100527.66;10411033;28;20033;-84
2021/12/03 04:03:50;;;;;;;61.33;33.63;;;;;;;-1.92;100.00;100603.31;10411107;28;20070;-83
2021/12/03 04:08:50;;;;;;;63.60;34.43;;;;;;;-4.29;100.00;100323.28;10410979;28;20108;-84
2021/12/03 04:13:51;;;;;;;62.30;33.97;;;;;;;-2.95;100.00;100428.41;10410894;28;20477;-84
2021/12/03 04:18:52;;;;;;;58.80;33.47;;;;;;;-1.63;100.00;100764.56;10426504;28;20065;-83
2021/12/03 04:23:52;;;;;;;64.07;35.23;;;;;;;-3.43;100.00;100484.13;10410688;28;20031;-86
2021/12/03 04:28:53;;;;;;;59.20;31.87;;;;;;;-3.50;100.00;100479.41;10426827;28;20025;-86
2021/12/03 04:33:53;;;;;;;59.57;34.00;;;;;;;-3.94;100.00;100326.56;10425513;28;20132;-85
2021/12/03 04:38:54;;;;;;;58.03;32.80;;;;;;;-2.93;100.00;100517.97;10409460;28;20456;-86
2021/12/03 04:43:54;;;;;;;59.90;34.37;;;;;;;-0.92;100.00;100771.66;10393086;28;20032;-84
2021/12/03 04:48:55;;;;;;;62.13;33.57;;;;;;;-1.66;100.00;100645.28;10408903;28;20036;-86
2021/12/03 04:53:55;;;;;;;56.77;31.43;;;;;;;-2.24;100.00;100596.25;10392687;28;20174;-84
2021/12/03 04:58:56;;;;;;;57.47;31.73;;;;;;;-2.52;100.00;100572.50;10409060;28;20025;-86
2021/12/03 05:03:56;;;;;;;59.57;33.17;;;;;;;-2.51;100.00;100522.09;10409087;28;20116;-85
2021/12/03 05:08:57;;;;;;;56.37;32.53;;;;;;;-2.82;100.00;100501.38;10408034;28;20048;-86
2021/12/03 05:13:57;;;;;;;54.92;30.95;;;;;;;-4.32;100.00;100199.16;10391669;28;20031;-85
2021/12/03 05:18:58;;;;;;;53.80;30.70;;;;;;;-2.85;100.00;100461.34;10424122;28;20065;-86
2021/12/03 05:23:58;;;;;;;52.00;31.10;;;;;;;-1.21;100.00;100759.72;10408400;28;20033;-85
2021/12/03 05:28:59;;;;;;;50.43;29.10;;;;;;;-3.59;100.00;100378.22;10408091;28;20021;-83
2021/12/03 05:33:59;;;;;;;48.90;30.17;;;;;;;-2.49;100.00;100512.00;10406898;28;20049;-84
2021/12/03 05:39:00;;;;;;;48.53;28.83;;;;;;;-1.76;100.00;100579.91;10439879;28;20097;-83
2021/12/03 05:44:01;;;;;;;61.93;30.43;;;;;;;-2.37;100.00;100512.44;10390054;28;20029;-85
2021/12/03 05:49:02;;;;;;;49.63;29.57;;;;;;;-3.27;100.00;100369.13;10407628;28;20033;-85
2021/12/03 05:54:03;;;;;;;50.33;29.87;;;;;;;-2.91;100.00;100575.19;10423066;28;20079;-84
2021/12/03 05:59:03;;;;;;;44.97;28.63;;;;;;;-2.15;100.00;100557.44;10390114;28;20056;-86
2021/12/03 06:04:04;;;;;;;42.77;27.77;;;;;;;-2.42;100.00;100596.50;10406403;28;20033;-86
2021/12/03 06:09:04;;;;;;;44.27;29.17;;;;;;;-2.95;100.00;100487.66;10422887;28;20043;-86
2021/12/03 06:14:05;;;;;;;49.00;29.53;;;;;;;-2.70;100.00;100474.91;10390623;28;20504;-86
2021/12/03 06:19:05;;;;;;;47.95;28.25;;;;;;;-2.29;100.00;100467.38;10421841;28;20119;-86
2021/12/03 06:24:06;;;;;;;46.90;28.37;;;;;;;-1.29;100.00;100651.75;10405611;28;20025;-85
2021/12/03 06:29:06;;;;;;;54.07;28.23;;;;;;;-2.25;100.00;100457.91;10405341;28;20469;-84
2021/12/03 06:34:07;;;;;;;45.33;28.07;;;;;;;-2.10;100.00;100516.44;10421869;28;20052;-83
2021/12/03 06:39:08;;;;;;;42.23;27.63;;;;;;;-1.46;100.00;100603.28;10406945;28;20431;-88
2021/12/03 06:44:08;;;;;;;40.90;26.33;;;;;;;-1.53;100.00;100578.03;10390087;28;20499;-88
2021/12/03 06:49:09;;;;;;;42.37;27.23;;;;;;;-1.87;100.00;100519.94;10406247;28;20096;-88
2021/12/03 06:54:11;;;;;;;45.00;26.90;;;;;;;-0.88;100.00;100745.97;10405292;28;20074;-88
2021/12/03 06:59:11;;;;;;;43.67;25.60;;;;;;;-1.86;100.00;100559.41;10430318;28;20032;-88
2021/12/03 07:04:12;;;;;;;43.47;26.33;;;;;;;-2.93;100.00;100365.25;10413778;28;20056;-87
2021/12/03 07:09:13;;;;;;;40.77;25.83;;;;;;;-3.56;100.00;100221.78;10413667;28;20094;-88
2021/12/03 07:14:13;;;;;;;37.73;24.07;;;;;;;-1.26;100.00;100594.66;10429866;28;20021;-88
2021/12/03 07:19:14;;;;;;;36.37;21.87;;;;;;;-1.42;100.00;100523.59;10396870;28;20115;-88
2021/12/03 07:24:15;;;;;;;34.50;20.90;;;;;;;-0.57;100.00;100666.56;10429775;28;20163;-87
2021/12/03 07:29:15;;;;;;;36.50;22.27;;;;;;;-1.95;100.00;100493.03;10396711;28;20095;-87
2021/12/03 07:34:16;;;;;;;36.70;22.20;;;;;;;-0.84;100.00;100598.63;10412430;28;20045;-86
2021/12/03 07:39:16;;;;;;;39.87;20.97;;;;;;;-1.11;100.00;100606.31;10396695;28;20044;-88
2021/12/03 07:44:17;;;;;;;36.57;19.80;;;;;;;-3.48;100.00;100294.41;10396741;28;20082;-89
2021/12/03 07:49:19;;;;;;;42.57;21.80;;;;;;;-4.54;100.00;100168.53;10397200;28;20044;-89
2021/12/03 07:54:20;;;;;;;33.90;21.07;;;;;;;-3.18;100.00;100256.88;10413140;28;20032;-89
2021/12/03 07:59:21;;;;;;;35.27;20.53;;;;;;;-4.46;100.00;99967.00;10412799;28;20028;-88
2021/12/03 08:04:21;;;;;;;38.03;21.10;;;;;;;-4.33;100.00;100128.47;10413532;28;20025;-89
2021/12/03 08:09:22;;;;;;;39.93;22.77;;;;;;;-3.86;100.00;100119.44;10412760;28;20480;-89
2021/12/03 08:14:23;;;;;;;37.90;21.67;;;;;;;-2.78;100.00;100431.84;10413270;28;20024;-90
2021/12/03 08:19:41;;;;;;;41.77;22.10;;;;;;;-0.79;100.00;100569.16;10403116;28;20082;-91
2021/12/03 08:24:45;;;;;;;41.97;21.20;;;;;;;-3.79;100.00;100177.91;10411727;28;20029;-88
2021/12/03 08:29:46;;;;;;;46.47;23.10;;;;;;;-2.66;100.00;100401.59;10411374;28;20040;-88
2021/12/03 08:34:47;;;;;;;44.77;22.90;;;;;;;-1.78;100.00;100512.63;10429041;28;20060;-89
2021/12/03 08:39:48;;;;;;;41.87;20.87;;;;;;;-1.94;100.00;100376.03;10410610;28;20120;-89
2021/12/03 08:44:51;;;;;;;38.53;23.47;;;;;;;-3.04;100.00;100193.28;10410466;28;20533;-89
2021/12/03 08:49:54;;;;;;;45.23;21.00;;;;;;;-1.85;100.00;100482.00;10409623;28;20035;-89
2021/12/03 08:54:55;;;;;;;40.53;22.33;;;;;;;-3.72;100.00;100134.00;10426062;28;20463;-89
2021/12/03 08:59:58;;;;;;;46.40;25.40;;;;;;;-4.78;100.00;100001.09;10408909;28;20025;-94
2021/12/03 09:04:59;;;;;;;46.23;25.10;;;;;;;-4.97;100.00;99868.16;10396745;28;20024;-94
2021/12/03 09:09:59;;;;;;;58.77;27.00;;;;;;;-4.94;100.00;99818.63;10383934;28;20036;-88
2021/12/03 09:15:05;;;;;;;53.03;27.10;;;;;;;-3.09;100.00;100113.06;10350635;28;20060;-87
2021/12/03 09:25:31;;;;;;;50.42;27.00;;;;;;;-2.22;100.00;100272.50;10400807;28;20029;-88
2021/12/03 09:30:40;;;;;;;54.67;27.47;;;;;;;-0.65;100.00;100518.81;10409951;28;20017;-88
2021/12/03 09:35:45;;;;;;;60.20;31.60;;;;;;;-2.60;100.00;100184.44;10392336;28;20098;-87
2021/12/03 09:40:46;;;;;;;58.43;31.37;;;;;;;-3.57;100.00;99977.97;10409329;28;20057;-92
2021/12/03 09:45:59;;;;;;;54.15;29.88;;;;;;;-2.96;100.00;100044.25;10393044;28;20044;-92
2021/12/03 09:51:00;;;;;;;57.87;31.37;;;;;;;-1.50;100.00;100288.78;10410331;28;20078;-91
2021/12/03 09:56:00;;;;;;;67.73;32.60;;;;;;;-4.04;100.00;99960.28;10408581;28;20131;-91
2021/12/03 10:01:09;;;;;;;62.13;31.67;;;;;;;-4.41;100.00;99862.50;10395535;28;20040;-91
2021/12/03 10:07:40;;;;;;;75.07;34.50;;;;;;;-5.50;100.00;99696.31;10394261;28;20033;-89
2021/12/03 10:17:43;;;;;;;63.73;30.27;;;;;;;-6.22;100.00;99568.03;10411043;28;20021;-91
2021/12/03 10:44:31;;;;;;;51.10;24.10;;;;;;;-5.70;100.00;99464.56;10411236;28;20433;-92
2021/12/03 10:49:46;;;;;;;45.33;22.67;;;;;;;-1.68;100.00;100194.72;10414736;28;20079;-89
2021/12/03 12:29:39;;;;;;;17.67;6.90;;;;;;;-0.17;100.00;100080.81;10268952;28;20133;-91
2021/12/03 12:40:35;;;;;;;21.60;7.88;;;;;;;-4.81;100.00;99397.38;10415041;28;20037;-92
2021/12/03 12:57:29;;;;;;;18.02;6.65;;;;;;;-3.17;100.00;99510.09;10425845;28;20091;-88
2021/12/03 13:57:06;;;;;;;25.00;11.77;;;;;;;-2.76;100.00;99586.56;10411682;28;20029;-91
2021/12/03 14:07:24;;;;;;;25.83;10.70;;;;;;;-4.31;100.00;99430.47;10410466;28;20005;-94
2021/12/03 14:44:16;;;;;;;;;;;;;;;1.51;100.00;100123.13;10424328;28;20033;-85
2021/12/03 14:59:26;;;;;;;15.33;8.60;;;;;;;-1.30;100.00;99812.88;10384125;28;20110;-86
2021/12/03 15:04:39;;;;;;;17.43;9.93;;;;;;;-5.00;100.00;99255.72;10384718;28;20102;-85
2021/12/03 15:09:42;;;;;;;19.83;8.83;;;;;;;-1.06;100.00;99817.72;10361832;28;20029;-85
2021/12/03 15:20:32;;;;;;;18.30;7.68;;;;;;;-2.54;100.00;99482.19;10393305;28;20530;-86
2021/12/03 15:30:47;;;;;;;16.13;7.77;;;;;;;-3.94;100.00;99366.66;10388035;28;20525;-86
2021/12/03 16:54:42;;;;;;;24.58;14.85;;;;;;;0.36;100.00;99904.09;10465855;28;20021;-87
2021/12/03 16:59:45;;;;;;;23.73;15.30;;;;;;;-3.38;100.00;99200.75;10449694;28;20037;-93
2021/12/03 17:48:10;;;;;;;33.13;20.77;;;;;;;-2.10;100.00;99500.53;10428389;28;20098;-87
2021/12/03 18:51:43;;;;;;;39.47;23.67;;;;;;;0.44;100.00;99863.25;10444144;28;20060;-87
2021/12/03 18:56:49;;;;;;;39.67;23.73;;;;;;;-2.36;100.00;99452.78;10419139;28;20024;-86
2021/12/03 19:01:50;;;;;;;37.65;23.60;;;;;;;-2.17;100.00;99391.84;10447589;28;20036;-91
2021/12/03 19:07:03;;;;;;;40.90;24.60;;;;;;;-3.08;100.00;99277.41;10413429;28;20021;-87
2021/12/03 19:12:14;;;;;;;39.78;23.95;;;;;;;-3.78;100.00;99157.63;10415405;28;20033;-87
2021/12/03 19:17:15;;;;;;;43.78;24.45;;;;;;;-1.46;100.00;99431.59;10416518;28;20025;-91
2021/12/03 19:22:19;;;;;;;39.17;24.23;;;;;;;-0.54;100.00;99647.69;10430209;28;20020;-88
2021/12/03 19:27:24;;;;;;;44.03;24.27;;;;;;;-1.52;100.00;99518.81;10412558;28;20178;-87
2021/12/03 19:32:31;;;;;;;44.33;25.58;;;;;;;-0.01;100.00;99798.19;10429299;28;20033;-87
2021/12/03 19:37:35;;;;;;;51.47;26.75;;;;;;;-2.13;100.00;99463.22;10430396;28;20053;-86
2021/12/03 19:48:14;;;;;;;44.40;26.02;;;;;;;-1.48;100.00;99368.06;10387554;28;20043;-86
2021/12/03 19:53:20;;;;;;;48.40;27.17;;;;;;;-2.79;100.00;99250.25;10411794;28;20025;-86
2021/12/03 19:58:20;;;;;;;58.78;28.98;;;;;;;1.28;100.00;99915.66;10412591;28;20086;-91
2021/12/03 20:03:21;;;;;;;53.33;28.95;;;;;;;0.64;100.00;99735.91;10427102;28;20029;-91
2021/12/03 20:08:22;;;;;;;55.20;30.10;;;;;;;-1.47;100.00;99570.31;10416763;28;20532;-91
2021/12/03 20:13:25;;;;;;;57.85;29.48;;;;;;;-0.28;100.00;99679.25;10414843;28;20036;-86
2021/12/03 20:18:40;;;;;;;54.13;27.58;;;;;;;-1.12;100.00;99559.25;10434792;28;20040;-86
2021/12/03 20:34:27;;;;;;;59.33;30.33;;;;;;;-0.13;100.00;99707.91;10441869;28;20027;-86
2021/12/03 20:39:27;;;;;;;54.65;27.85;;;;;;;-2.45;100.00;99233.88;10432978;28;20045;-92
2021/12/03 21:10:32;;;;;;;51.90;26.73;;;;;;;-1.60;100.00;99473.16;10451911;28;20017;-91
2021/12/03 21:15:45;;;;;;;48.50;26.55;;;;;;;0.18;100.00;99691.75;10445819;28;20024;-92
2021/12/03 21:25:51;;;;;;;46.53;25.25;;;;;;;-1.44;100.00;99415.19;10444952;28;20477;-87
2021/12/03 21:30:56;;;;;;;45.72;23.95;;;;;;;1.22;100.00;99859.59;10444040;28;20083;-86
2021/12/03 21:41:23;;;;;;;47.50;23.60;;;;;;;-0.42;100.00;99477.50;10447079;28;20032;-87
2021/12/03 21:46:25;;;;;;;39.43;21.30;;;;;;;0.19;100.00;99633.88;10446039;28;20095;-89
2021/12/03 21:51:26;;;;;;;45.37;22.13;;;;;;;-0.97;100.00;99623.03;10443431;28;20021;-92
2021/12/03 21:56:29;;;;;;;38.65;21.70;;;;;;;0.56;100.00;99699.06;10450140;28;20123;-92
2021/12/03 22:01:33;;;;;;;42.20;22.60;;;;;;;-1.77;100.00;99328.94;10466862;28;20499;-92
2021/12/03 22:06:37;;;;;;;43.13;23.10;;;;;;;-1.02;100.00;99604.75;10451987;28;20024;-93
2021/12/03 22:11:42;;;;;;;43.63;22.67;;;;;;;1.70;100.00;99977.59;10467853;28;20147;-93
2021/12/03 22:16:43;;;;;;;44.30;23.23;;;;;;;-0.84;100.00;99450.09;10451059;28;20081;-92
2021/12/03 22:21:44;;;;;;;40.63;22.38;;;;;;;-0.95;100.00;99361.59;10466805;28;20126;-92
2021/12/03 22:26:45;;;;;;;49.97;23.15;;;;;;;-4.60;100.00;98984.84;10449968;28;20024;-93
2021/12/03 22:31:46;;;;;;;44.63;22.03;;;;;;;-0.94;100.00;99514.56;10449747;28;20111;-92
2021/12/03 22:36:54;;;;;;;42.95;22.27;;;;;;;-2.36;100.00;99312.63;10425765;28;20124;-92
2021/12/03 22:41:57;;;;;;;49.42;23.40;;;;;;;-3.63;100.00;99187.88;10410886;28;20069;-92
2021/12/03 22:52:22;;;;;;;47.65;25.10;;;;;;;-0.90;100.00;99526.59;10413371;28;20099;-92
2021/12/03 22:57:23;;;;;;;51.33;23.90;;;;;;;-3.20;100.00;99217.13;10408030;28;20087;-92
2021/12/03 23:02:24;;;;;;;47.37;24.23;;;;;;;0.94;100.00;99709.00;10392364;28;20025;-92
2021/12/03 23:07:27;;;;;;;47.87;23.60;;;;;;;-0.83;100.00;99586.84;10393460;28;20067;-91
2021/12/03 23:12:28;;;;;;;55.20;24.70;;;;;;;-0.86;100.00;99600.78;10392414;28;20029;-92
2021/12/03 23:17:31;;;;;;;48.88;24.23;;;;;;;-0.84;100.00;99485.22;10391752;28;20032;-92
2021/12/03 23:22:31;;;;;;;53.13;26.37;;;;;;;0.75;100.00;99734.38;10391726;28;20031;-92
2021/12/03 23:27:32;;;;;;;48.13;25.10;;;;;;;-3.00;100.00;99097.84;10388628;28;20036;-86
2021/12/03 23:32:33;;;;;;;48.70;24.27;;;;;;;-1.88;100.00;99328.53;10404398;28;20029;-87
2021/12/03 23:37:34;;;;;;;47.10;23.92;;;;;;;-0.42;100.00;99534.28;10436922;28;20044;-86
2021/12/03 23:42:35;;;;;;;43.70;21.92;;;;;;;-2.56;100.00;99217.50;10470626;28;20060;-86
2021/12/03 23:47:36;;;;;;;46.90;23.17;;;;;;;-1.87;100.00;99337.47;10469161;28;20044;-86
2021/12/03 23:52:36;;;;;;;40.00;20.98;;;;;;;-1.79;100.00;99279.75;10485362;28;20491;-86
2021/12/03 23:57:37;;;;;;;44.17;21.50;;;;;;;-0.63;100.00;99549.78;10452587;28;20025;-86
